EW9904 Weather Reports


Display with metric or nautical units.
time (UTC)temp
F
wind
direction
speed
MPH
gust
MPH
rain 1hr
in
rain 24hr
in
rain mn
in
humidity
%
barometer
mb
20210924071459 60 333 2.0 5.0 0.00 0.59 0.00 96 1015.8
20210924071001 60 325 3.0 6.0 0.00 0.59 0.00 95 1015.9
20210924070518 60 322 3.0 6.0 0.00 0.59 0.00 95 1015.8
20210924070004 60 311 3.0 6.0 0.00 0.59 0.00 95 1015.9
20210924065501 60 321 3.0 8.0 0.00 0.59 0.00 95 1015.9
20210924065003 60 355 3.0 8.0 0.00 0.59 0.00 95 1015.8
20210924064501 60 329 3.0 8.0 0.00 0.59 0.00 95 1015.6
20210924064003 60 349 3.0 8.0 0.00 0.59 0.00 96 1015.4
20210924063502 60 302 2.0 8.0 0.00 0.59 0.00 96 1015.5
20210924063003 60 314 2.0 5.0 0.00 0.59 0.00 96 1015.6
20210924062502 60 328 1.0 5.0 0.00 0.59 0.00 96 1015.5
20210924062002 60 316 1.0 3.0 0.00 0.59 0.00 96 1015.4
20210924061501 60 316 2.0 5.0 0.00 0.59 0.00 96 1015.4
20210924061006 60 315 2.0 5.0 0.00 0.59 0.00 96 1015.4
20210924060501 61 334 2.0 5.0 0.00 0.59 0.00 97 1015.4
20210924060002 61 325 1.0 5.0 0.00 0.59 0.00 97 1015.5
20210924055500 61 340 1.0 3.0 0.00 0.59 0.00 97 1015.5
20210924055002 61 346 1.0 5.0 0.00 0.59 0.00 97 1015.6
20210924054501 62 345 2.0 5.0 0.00 0.59 0.00 97 1015.4
20210924054002 62 340 2.0 8.0 0.00 0.59 0.00 97 1015.4
20210924053502 62 334 2.0 8.0 0.00 0.59 0.00 98 1015.3
20210924053003 62 322 3.0 8.0 0.00 0.59 0.00 98 1015.2
20210924052501 62 325 3.0 8.0 0.00 0.59 0.00 98 1015.1
20210924052002 63 315 2.0 6.0 0.00 0.59 0.00 98 1014.9
20210924051502 63 336 1.0 4.0 0.00 0.59 0.00 98 1015.0
20210924051002 63 323 0.0 3.0 0.00 0.59 0.00 99 1015.0
20210924050501 63 325 0.0 0.0 0.00 0.59 0.00 99 1015.2
20210924050002 63 325 0.0 0.0 0.00 0.59 0.00 98 1015.3
20210924045503 63 325 0.0 0.0 0.00 0.59 0.00 98 1015.4
20210924045003 63 325 0.0 0.0 0.00 0.59 0.00 98 1015.4
20210924044503 63 325 0.0 0.0 0.00 0.59 0.00 98 1015.3
20210924044003 63 325 0.0 0.0 0.00 0.59 0.00 98 1015.4
20210924043502 63 325 0.0 0.0 0.00 0.59 0.00 98 1015.2
20210924043002 63 325 0.0 0.0 0.00 0.59 0.00 98 1015.2
20210924042502 63 325 0.0 1.0 0.00 0.59 0.00 98 1015.2
20210924042002 63 325 0.0 1.0 0.00 0.59 0.00 98 1015.3
20210924041503 63 325 0.0 0.0 0.00 0.59 0.00 98 1015.4
20210924041002 63 325 0.0 0.0 0.00 0.59 0.00 98 1015.5
20210924040505 63 325 0.0 0.0 0.00 0.59 0.00 98 1015.7
20210924040002 63 325 0.0 0.0 0.00 0.59 0.59 98 1015.8
20210924035503 63 325 0.0 0.0 0.00 0.59 0.59 98 1015.6
20210924035020 63 325 0.0 0.0 0.00 0.59 0.59 98 1015.6
20210924034502 63 325 0.0 0.0 0.00 0.59 0.59 98 1015.6
20210924034002 63 325 0.0 0.0 0.00 0.59 0.59 98 1015.6
20210924033501 63 325 0.0 0.0 0.01 0.59 0.59 98 1015.7
20210924033002 63 325 1.0 4.0 0.03 0.59 0.59 98 1015.8
20210924032502 62 325 2.0 4.0 0.04 0.59 0.59 98 1015.7
20210924032002 62 246 1.0 3.0 0.04 0.59 0.59 98 1015.6
20210924031501 62 246 0.0 3.0 0.05 0.59 0.59 98 1015.6
20210924031002 63 246 0.0 2.0 0.09 0.59 0.59 98 1015.4
20210924030503 62 246 0.0 2.0 0.09 0.59 0.59 98 1015.3
20210924030004 62 246 0.0 2.0 0.09 0.59 0.59 98 1015.3
20210924025502 62 246 0.0 2.0 0.09 0.59 0.59 98 1015.2
20210924025003 62 246 0.0 1.0 0.09 0.59 0.59 98 1015.1
20210924024502 62 246 1.0 3.0 0.09 0.59 0.59 98 1015.1
20210924024004 62 246 0.0 3.0 0.09 0.59 0.59 98 1015.2
20210924023501 62 245 0.0 1.0 0.08 0.58 0.58 98 1015.4
20210924023003 63 245 0.0 1.0 0.06 0.56 0.56 98 1015.2
20210924022508 62 245 0.0 1.0 0.05 0.55 0.55 98 1015.0
20210924022003 62 245 0.0 1.0 0.05 0.55 0.55 97 1015.0
20210924021502 63 245 0.0 1.0 0.05 0.54 0.54 98 1015.0
20210924021002 63 246 0.0 0.0 0.01 0.50 0.50 98 1015.0
20210924020502 62 246 0.0 0.0 0.01 0.50 0.50 98 1015.1
20210924020002 63 246 0.0 0.0 0.01 0.50 0.50 98 1015.0
20210924015501 62 246 0.0 0.0 0.03 0.50 0.50 97 1014.9
20210924015002 63 246 0.0 0.0 0.05 0.50 0.50 98 1014.7
20210924014505 63 246 0.0 0.0 0.05 0.50 0.50 98 1014.7
20210924014002 63 246 0.0 0.0 0.05 0.50 0.50 98 1014.8
20210924013512 63 246 0.0 0.0 0.05 0.50 0.50 98 1014.7
20210924013002 63 246 0.0 1.0 0.05 0.50 0.50 97 1014.6
20210924012502 63 246 1.0 3.0 0.05 0.50 0.50 97 1014.5
20210924012002 63 245 0.0 3.0 0.05 0.50 0.50 97 1014.2
20210924011502 63 246 0.0 0.0 0.04 0.49 0.49 98 1014.4
20210924011008 63 246 0.0 0.0 0.04 0.49 0.49 98 1014.5
20210924010501 63 246 0.0 0.0 0.04 0.49 0.49 98 1014.6
20210924010015 63 246 0.0 0.0 0.04 0.49 0.49 98 1014.8
20210924005502 63 246 0.0 0.0 0.04 0.47 0.47 98 1014.7
20210924005001 63 246 0.0 0.0 0.04 0.45 0.45 97 1014.8
20210924004502 63 246 0.0 0.0 0.06 0.45 0.45 97 1014.6
20210924004001 63 246 0.0 0.0 0.06 0.45 0.45 97 1014.5
20210924003502 63 246 0.0 0.0 0.06 0.45 0.45 97 1014.5
20210924003001 63 246 0.0 0.0 0.06 0.45 0.45 97 1014.5
20210924002501 63 246 0.0 2.0 0.06 0.45 0.45 97 1014.3
20210924002001 64 246 0.0 2.0 0.06 0.45 0.45 97 1014.0
20210924001502 63 246 1.0 2.0 0.06 0.45 0.45 97 1014.1
20210924001002 64 246 1.0 3.0 0.06 0.45 0.45 97 1013.9
20210924000501 64 246 1.0 3.0 0.06 0.45 0.45 97 1013.9
20210924000002 63 246 0.0 2.0 0.05 0.44 0.44 97 1014.0
20210923235502 63 246 0.0 2.0 0.04 0.43 0.43 97 1013.9
20210923235004 63 246 1.0 2.0 0.02 0.41 0.41 97 1014.0
20210923234502 63 246 1.0 2.0 0.01 0.39 0.39 96 1014.2
20210923234002 64 246 1.0 2.0 0.02 0.39 0.39 96 1014.0
20210923233502 64 246 1.0 2.0 0.02 0.39 0.39 97 1013.8
20210923233002 63 246 0.0 2.0 0.02 0.39 0.39 96 1013.8
20210923232502 63 246 1.0 2.0 0.02 0.39 0.39 95 1013.8
20210923232002 64 246 1.0 2.0 0.02 0.39 0.39 95 1013.8
20210923231503 64 247 1.0 4.0 0.02 0.39 0.39 95 1013.8
20210923231002 64 247 1.0 4.0 0.02 0.39 0.39 95 1013.7
20210923230502 64 251 1.0 3.0 0.02 0.39 0.39 95 1013.6
20210923230002 64 251 1.0 3.0 0.02 0.39 0.39 95 1013.5
20210923225501 64 251 1.0 3.0 0.02 0.39 0.39 96 1013.4
20210923225002 65 265 0.0 1.0 0.02 0.39 0.39 96 1013.2
20210923224501 65 265 0.0 3.0 0.01 0.38 0.38 96 1013.2
20210923224002 66 265 0.0 3.0 0.00 0.37 0.37 97 1013.0
20210923223502 66 265 0.0 0.0 0.00 0.37 0.37 97 1013.2
20210923223002 66 265 0.0 0.0 0.00 0.37 0.37 97 1013.2
20210923222501 65 265 0.0 0.0 0.00 0.37 0.37 97 1013.1
20210923222002 65 265 0.0 1.0 0.00 0.37 0.37 96 1013.1
20210923221502 65 265 0.0 1.0 0.00 0.37 0.37 96 1013.0
20210923221001 66 265 0.0 3.0 0.00 0.37 0.37 96 1012.8
20210923220502 66 265 0.0 3.0 0.00 0.37 0.37 96 1012.8
20210923220003 66 260 0.0 3.0 0.00 0.37 0.37 97 1012.9
20210923215502 66 269 0.0 1.0 0.00 0.37 0.37 96 1012.7
20210923215002 66 269 0.0 1.0 0.00 0.37 0.37 96 1012.7
20210923214502 66 269 0.0 0.0 0.00 0.37 0.37 97 1012.6
20210923214001 66 269 0.0 1.0 0.00 0.37 0.37 96 1012.5
20210923213501 66 269 0.0 1.0 0.00 0.37 0.37 96 1012.6
20210923213001 66 269 1.0 2.0 0.00 0.37 0.37 96 1012.6
20210923210501 67 270 1.0 3.0 0.02 0.37 0.37 97 1012.3
20210923210003 67 271 1.0 3.0 0.05 0.37 0.37 97 1012.1
20210923205504 67 271 1.0 3.0 0.06 0.37 0.37 97 1012.0
20210923204503 67 214 1.0 5.0 0.06 0.37 0.37 97 1012.1
20210923204003 67 269 1.0 4.0 0.06 0.37 0.37 97 1012.2
20210923203502 67 285 0.0 3.0 0.06 0.37 0.37 97 1012.3
20210923203002 67 300 0.0 2.0 0.06 0.37 0.37 97 1012.0
20210923202502 67 300 1.0 2.0 0.06 0.37 0.37 97 1012.0
20210923202002 67 300 1.0 3.0 0.06 0.37 0.37 97 1012.0
20210923201502 67 300 1.0 3.0 0.06 0.37 0.37 97 1011.9
20210923201002 67 301 1.0 5.0 0.05 0.36 0.36 96 1011.8
20210923200502 67 300 1.0 5.0 0.04 0.35 0.35 97 1012.0
20210923200004 67 302 1.0 4.0 0.01 0.32 0.32 96 1012.0
20210923195501 67 294 1.0 3.0 0.00 0.31 0.31 97 1012.0
20210923195003 67 293 1.0 3.0 0.01 0.31 0.31 96 1011.9
20210923194502 68 296 1.0 3.0 0.02 0.31 0.31 97 1011.7
20210923194005 68 296 1.0 4.0 0.04 0.31 0.31 97 1011.5
20210923193501 68 293 1.0 4.0 0.06 0.31 0.31 97 1011.3
20210923193002 67 265 1.0 3.0 0.08 0.31 0.31 97 1011.3
20210923192502 67 264 1.0 4.0 0.13 0.31 0.31 97 1011.4
20210923192008 67 319 2.0 4.0 0.14 0.31 0.31 97 1011.5
20210923191502 67 309 1.0 7.0 0.16 0.31 0.31 97 1011.5
20210923191002 67 243 1.0 5.0 0.16 0.31 0.31 97 1011.6
20210923190502 67 265 2.0 7.0 0.16 0.31 0.31 97 1011.8
20210923190005 67 270 3.0 9.0 0.17 0.31 0.31 97 1011.7
20210923185525 67 278 2.0 9.0 0.17 0.31 0.31 97 1011.5
20210923175003 69 302 1.0 7.0 0.13 0.13 0.13 96 1011.2
20210923174500 69 273 1.0 6.0 0.13 0.13 0.13 95 1011.1
20210923174006 69 313 2.0 9.0 0.12 0.12 0.12 95 1011.1
20210923173500 70 271 4.0 11.0 0.12 0.12 0.12 94 1010.9
20210923173004 70 256 3.0 11.0 0.09 0.09 0.09 93 1010.9
20210923172501 71 246 3.0 12.0 0.04 0.04 0.04 93 1010.9
20210923172028 72 283 3.0 12.0 0.03 0.03 0.03 92 1010.7
20210923171500 74 296 5.0 14.0 0.01 0.01 0.01 89 1010.6
20210923171004 77 256 6.0 14.0 0.01 0.01 0.01 84 1010.7
20210923170500 80 360 5.0 14.0 0.00 0.00 0.00 83 1010.5
20210923170004 80 189 5.0 19.0 0.00 0.00 0.00 82 1010.3
20210923165500 81 267 6.0 19.0 0.00 0.00 0.00 82 1010.2
20210923165003 81 224 8.0 22.0 0.00 0.00 0.00 81 1010.2
20210923164500 81 230 8.0 22.0 0.00 0.00 0.00 81 1010.2
20210923164002 81 212 6.0 17.0 0.00 0.00 0.00 82 1010.0
20210923163500 81 198 6.0 18.0 0.00 0.00 0.00 83 1010.1
20210923163003 80 238 6.0 21.0 0.00 0.00 0.00 85 1009.9
20210923162500 80 121 6.0 21.0 0.00 0.00 0.00 85 1009.9
20210923162002 79 189 5.0 15.0 0.00 0.00 0.00 86 1009.8
20210923161500 79 119 5.0 17.0 0.00 0.00 0.00 85 1009.8
20210923161002 79 221 7.0 18.0 0.00 0.00 0.00 85 1009.8
20210923160500 79 173 8.0 19.0 0.00 0.00 0.00 85 1009.7
20210923160005 79 231 8.0 17.0 0.00 0.00 0.00 85 1009.7
20210923155500 79 223 8.0 17.0 0.00 0.00 0.00 85 1009.8
20210923155002 79 161 7.0 17.0 0.00 0.00 0.00 86 1009.9
20210923154500 79 192 6.0 15.0 0.00 0.00 0.00 87 1009.9
20210923154003 79 223 7.0 17.0 0.00 0.00 0.00 89 1010.0
20210923153500 78 222 8.0 19.0 0.00 0.00 0.00 88 1010.1
20210923153010 78 194 7.0 15.0 0.00 0.00 0.00 89 1010.0
20210923152500 78 57 7.0 21.0 0.00 0.00 0.00 88 1010.3
20210923152002 78 235 8.0 23.0 0.00 0.00 0.00 87 1010.4
20210923151501 79 217 7.0 18.0 0.00 0.00 0.00 84 1010.4
20210923151101 80 129 8.0 21.0 0.00 0.00 0.00 82 1010.4
20210923142500 79 169 8.0 21.0 0.00 0.00 0.00 85 1010.5
20210923142017 80 213 8.0 21.0 0.00 0.00 0.00 82 1010.4
20210923141500 80 182 7.0 25.0 0.00 0.00 0.00 82 1010.4
20210923141000 80 245 7.0 25.0 0.00 0.00 0.00 82 1010.2
20210923140459 80 220 9.0 22.0 0.00 0.00 0.00 82 1010.2
20210923140020 80 210 10.0 22.0 0.00 0.00 0.00 81 1010.4
20210923135459 80 163 8.0 22.0 0.00 0.00 0.00 82 1010.2
20210923135000 80 188 7.0 20.0 0.00 0.00 0.00 82 1010.2
20210923134459 80 178 7.0 20.0 0.00 0.00 0.00 82 1010.2
20210923134003 80 265 8.0 20.0 0.00 0.00 0.00 82 1010.0
20210923133500 80 172 8.0 26.0 0.00 0.00 0.00 82 1009.9
20210923133001 80 153 8.0 22.0 0.00 0.00 0.00 82 1009.8
20210923132500 80 166 8.0 25.0 0.00 0.00 0.00 81 1009.8
20210923132000 80 267 8.0 25.0 0.00 0.00 0.00 82 1010.0
20210923131500 80 202 8.0 21.0 0.00 0.00 0.00 82 1010.0
20210923131000 80 168 7.0 18.0 0.00 0.00 0.00 82 1010.0
20210923130459 80 246 6.0 13.0 0.00 0.00 0.00 83 1010.3
20210923130004 79 232 6.0 23.0 0.00 0.00 0.00 83 1010.5
20210923125500 79 175 6.0 22.0 0.00 0.00 0.00 84 1010.7
20210923124959 78 221 5.0 13.0 0.00 0.00 0.00 84 1010.4
20210923124516 78 248 5.0 11.0 0.00 0.00 0.00 85 1010.3
20210923120004 77 75 6.0 18.0 0.00 0.00 0.00 87 1010.4
20210923115500 77 221 5.0 18.0 0.00 0.00 0.00 87 1010.4
20210923110959 76 182 5.0 13.0 0.00 0.00 0.00 88 1010.4
20210923110458 76 265 5.0 15.0 0.00 0.00 0.00 88 1010.5
20210923110000 76 111 4.0 15.0 0.00 0.00 0.00 89 1010.5
20210923105458 76 157 5.0 11.0 0.00 0.00 0.00 88 1010.5
20210923105000 76 209 5.0 12.0 0.00 0.00 0.00 88 1010.4
20210923104458 76 227 5.0 10.0 0.00 0.00 0.00 88 1010.4
20210923103958 76 286 5.0 11.0 0.00 0.00 0.00 88 1010.5
20210923103458 76 232 5.0 11.0 0.00 0.00 0.00 88 1010.6
20210923102959 76 216 6.0 14.0 0.00 0.00 0.00 89 1010.6
20210923102508 76 336 5.0 11.0 0.00 0.00 0.00 89 1010.6
20210923101959 76 132 4.0 10.0 0.00 0.00 0.00 89 1010.6
20210923101458 76 211 5.0 16.0 0.00 0.00 0.00 89 1010.7
20210923100958 76 115 6.0 16.0 0.00 0.00 0.00 89 1010.6
20210923100501 76 226 5.0 16.0 0.00 0.00 0.00 89 1010.7
20210923095958 76 217 5.0 17.0 0.00 0.00 0.00 89 1010.7
20210923095459 76 205 5.0 12.0 0.00 0.00 0.00 89 1010.8
20210923094959 76 200 5.0 12.0 0.00 0.00 0.00 90 1010.8
20210923094459 76 161 5.0 11.0 0.00 0.00 0.00 90 1010.9
20210923093959 76 62 5.0 15.0 0.00 0.00 0.00 90 1010.9
20210923093459 76 99 4.0 15.0 0.00 0.00 0.00 90 1010.8
20210923092958 76 186 4.0 11.0 0.00 0.00 0.00 90 1010.8
20210923092459 76 263 4.0 15.0 0.00 0.00 0.00 90 1010.7
20210923091958 76 154 4.0 15.0 0.00 0.00 0.00 90 1010.8
20210923091459 76 30 5.0 11.0 0.00 0.00 0.00 91 1010.8
20210923090958 76 182 5.0 14.0 0.00 0.00 0.00 91 1010.8
20210923090500 76 227 5.0 14.0 0.00 0.00 0.00 91 1010.8
20210923085959 75 205 4.0 11.0 0.00 0.00 0.00 91 1010.7
20210923085459 75 261 4.0 12.0 0.00 0.00 0.00 91 1010.7
20210923084958 75 167 5.0 12.0 0.00 0.00 0.00 92 1010.7
20210923084458 75 196 4.0 10.0 0.00 0.00 0.00 92 1010.7
20210923083959 75 98 3.0 11.0 0.00 0.00 0.00 92 1010.8
20210923083459 75 213 4.0 11.0 0.00 0.00 0.00 92 1010.7
20210923082959 75 155 4.0 13.0 0.00 0.00 0.00 91 1010.7
20210923082458 75 198 4.0 12.0 0.00 0.00 0.00 92 1010.7
20210923081958 75 187 4.0 10.0 0.00 0.00 0.00 91 1010.7
20210923081459 75 209 4.0 10.0 0.00 0.00 0.00 91 1010.7
20210923080958 75 211 4.0 12.0 0.00 0.00 0.00 91 1010.7
20210923080459 75 167 4.0 12.0 0.00 0.00 0.00 91 1010.9
20210923075959 75 71 4.0 14.0 0.00 0.00 0.00 91 1011.0
20210923075459 75 37 5.0 14.0 0.00 0.00 0.00 90 1011.1
20210923074958 75 178 6.0 15.0 0.00 0.00 0.00 90 1011.2
20210923074459 75 215 5.0 17.0 0.00 0.00 0.00 90 1011.3
20210923074000 75 242 5.0 10.0 0.00 0.00 0.00 90 1011.4
20210923073500 75 223 4.0 12.0 0.00 0.00 0.00 91 1011.5
20210923073000 75 201 5.0 19.0 0.00 0.00 0.00 91 1011.6
20210923072500 75 154 4.0 19.0 0.00 0.00 0.00 91 1011.6
20210923072000 75 190 3.0 10.0 0.00 0.00 0.00 91 1011.6